Catàleg de serveis del Meteocat
Campanya meteocatpedra

Dades de l'estació automàtica Oliana

?
?
Resum diari 21:30 TU
Dades diàries de l'estació meteorològica
Temperatura mitjana 12.8 °C
Temperatura màxima 20.1 °C 13:34 TU
Temperatura mínima 6.1 °C 3:33 TU
Humitat relativa mitjana 71%
Precipitació acumulada 0.0 mm
Ratxa màxima del vent (2 m) 22.0 km/h - 135º 14:55 TU
Irradiació solar global 10.0 MJ/m2

El tram horari està expressat en Temps Universal (TU). Cal sumar una hora en horari d'hivern i dues en horari d'estiu per passar a l'hora oficial.

Oliana

Metadades estació meteorol´gica
Municipi Oliana
Comarca Alt Urgell
Altitud 490 m
Data alta 22.06.2000
Estat actual Operativa
Dades de període
Període
TU
TM
°C
TX
°C
TN
°C
HRM
%
PPT
mm
VVM (2 m)
km/h
DVM (2 m)
graus
VVX (2 m)
km/h
RS
W/m2
00:00 - 00:30 9.2 9.4 9.0 95 0.0 1.1 69 4.7 0
00:30 - 01:00 8.8 9.1 8.4 96 0.0 1.8 97 4.0 0
01:00 - 01:30 8.2 8.4 8.0 98 0.0 0.7 63 3.6 0
01:30 - 02:00 8.0 8.3 7.7 99 0.0 1.4 72 4.0 0
02:00 - 02:30 7.5 7.9 7.3 99 0.0 0.7 76 3.6 0
02:30 - 03:00 7.3 7.5 7.2 100 0.0 1.1 73 3.2 0
03:00 - 03:30 6.9 7.3 6.4 100 0.0 1.8 68 3.6 0
03:30 - 04:00 6.4 6.6 6.1 100 0.0 0.7 62 3.2 0
04:00 - 04:30 6.6 6.7 6.5 100 0.0 1.1 134 3.6 0
04:30 - 05:00 7.0 7.5 6.4 100 0.0 2.5 123 5.0 0
05:00 - 05:30 7.1 7.3 6.6 100 0.0 1.4 134 4.0 2
05:30 - 06:00 6.7 7.1 6.5 100 0.0 1.1 120 3.6 22
06:00 - 06:30 7.2 7.5 7.1 100 0.0 0.7 36 4.0 59
06:30 - 07:00 8.1 8.6 7.6 100 0.0 0.7 214 5.4 86
07:00 - 07:30 8.4 9.1 8.1 99 0.0 2.9 177 7.2 162
07:30 - 08:00 10.0 10.9 9.2 93 0.0 1.1 139 4.3 268
08:00 - 08:30 11.9 13.0 11.0 85 0.0 1.4 60 5.0 281
08:30 - 09:00 12.6 13.2 12.2 87 0.0 4.0 204 7.2 271
09:00 - 09:30 13.6 14.4 12.8 79 0.0 2.5 143 7.2 291
09:30 - 10:00 15.2 15.7 14.5 67 0.0 2.9 349 9.0 263
10:00 - 10:30 15.1 15.7 14.8 64 0.0 1.8 6 11.9 190
10:30 - 11:00 16.3 16.8 15.7 62 0.0 4.3 283 13.3 375
11:00 - 11:30 16.4 16.8 16.1 61 0.0 3.6 218 9.7 289
11:30 - 12:00 16.9 17.5 16.3 59 0.0 2.5 282 6.8 314
12:00 - 12:30 17.3 18.1 16.9 56 0.0 2.5 299 9.0 282
12:30 - 13:00 18.4 18.7 18.1 50 0.0 4.3 80 21.2 449
13:00 - 13:30 19.0 20.0 18.2 49 0.0 4.7 117 19.4 569
13:30 - 14:00 19.8 20.1 19.0 45 0.0 5.4 99 17.3 468
14:00 - 14:30 18.9 19.3 18.3 46 0.0 8.3 141 18.7 302
14:30 - 15:00 17.8 18.3 17.3 51 0.0 11.2 149 22.0 183
15:00 - 15:30 17.3 17.5 17.0 51 0.0 7.2 132 18.4 82
15:30 - 16:00 17.1 17.2 17.0 49 0.0 3.2 52 12.6 87
16:00 - 16:30 16.9 17.1 16.8 52 0.0 3.6 242 17.3 96
16:30 - 17:00 16.5 16.9 16.1 51 0.0 6.5 169 16.6 78
17:00 - 17:30 16.5 16.8 15.7 48 0.0 3.6 123 15.1 54
17:30 - 18:00 15.1 15.7 14.7 55 0.0 2.2 97 8.6 32
18:00 - 18:30 15.0 15.3 14.3 53 0.0 2.2 346 10.1 11
18:30 - 19:00 13.4 14.1 12.9 60 0.0 3.2 89 7.6 0
19:00 - 19:30 13.5 14.6 13.0 56 0.0 2.5 53 7.6 0
19:30 - 20:00 13.6 14.1 12.6 51 0.0 1.8 47 7.9 0
20:00 - 20:30 13.8 14.9 12.3 47 0.0 4.3 109 17.3 0
20:30 - 21:00 14.4 15.4 13.0 41 0.0 5.8 167 17.6 0
21:00 - 21:30 14.2 14.6 13.2 40 0.0 1.8 134 8.3 0
21:30 - 22:00 13.1 13.4 12.4 47 0.0 2.5 326 8.3 0

Les dades en taronja només han passat un control de qualitat automàtic. Resta pendent la seva validació definitiva.